Terminal Aerodrome Forecast
Issued by NWS

Home | Current Version | Previous Version | Text Only | Print | Product List | Glossary On
Versions: 1 2 3 4 5 6 7 8 9 10 11 12 13 14 15 16 17 18 19 20 21 22 23 24 25 26
664
FTUS41 KBUF 111130
TAFIAG
TAF
KIAG 111130Z 1112/1212 30015G22KT 6SM -SN SCT025 OVC035
      TEMPO 1112/1115 4SM -SHSN BKN025
     FM111500 31016G22KT 6SM -SN OVC025
     FM111800 30016G22KT P6SM VCSH BKN035
     FM112100 29014G20KT P6SM BKN035
     FM120100 28011KT P6SM BKN040
     FM120500 25008KT P6SM BKN040=

USA.gov is the U.S. government's official web portal to all federal, state and local government web resources and services.